sensor_id;sensor_type;location;lat;lon;timestamp;P1;durP1;ratioP1;P2;durP2;ratioP2
46222;SDS011;31943;51.410;7.564;2023-06-19T00:00:40;5.22;;;3.88;;
46222;SDS011;31943;51.410;7.564;2023-06-19T00:03:07;4.97;;;3.92;;
46222;SDS011;31943;51.410;7.564;2023-06-19T00:05:33;4.13;;;3.70;;
46222;SDS011;31943;51.410;7.564;2023-06-19T00:07:59;5.65;;;4.40;;
46222;SDS011;31943;51.410;7.564;2023-06-19T00:10:24;4.47;;;4.03;;
46222;SDS011;31943;51.410;7.564;2023-06-19T00:12:50;5.20;;;3.72;;
46222;SDS011;31943;51.410;7.564;2023-06-19T00:15:17;4.40;;;4.00;;
46222;SDS011;31943;51.410;7.564;2023-06-19T00:17:43;5.03;;;3.47;;
46222;SDS011;31943;51.410;7.564;2023-06-19T00:20:09;4.32;;;3.80;;
46222;SDS011;31943;51.410;7.564;2023-06-19T00:22:35;4.22;;;3.83;;
46222;SDS011;31943;51.410;7.564;2023-06-19T00:25:00;3.95;;;3.65;;
46222;SDS011;31943;51.410;7.564;2023-06-19T00:27:26;4.30;;;3.90;;
46222;SDS011;31943;51.410;7.564;2023-06-19T00:29:52;4.47;;;4.07;;
46222;SDS011;31943;51.410;7.564;2023-06-19T00:32:19;4.55;;;3.42;;
46222;SDS011;31943;51.410;7.564;2023-06-19T00:34:44;4.25;;;3.80;;
46222;SDS011;31943;51.410;7.564;2023-06-19T00:37:10;5.18;;;3.80;;
46222;SDS011;31943;51.410;7.564;2023-06-19T00:39:36;4.35;;;3.75;;
46222;SDS011;31943;51.410;7.564;2023-06-19T00:42:01;4.35;;;3.83;;
46222;SDS011;31943;51.410;7.564;2023-06-19T00:44:27;3.83;;;3.40;;
46222;SDS011;31943;51.410;7.564;2023-06-19T00:46:55;4.13;;;3.83;;
46222;SDS011;31943;51.410;7.564;2023-06-19T00:49:24;4.18;;;3.80;;
46222;SDS011;31943;51.410;7.564;2023-06-19T00:51:51;4.22;;;3.67;;
46222;SDS011;31943;51.410;7.564;2023-06-19T00:54:16;5.03;;;4.05;;
46222;SDS011;31943;51.410;7.564;2023-06-19T00:56:43;5.32;;;4.20;;
46222;SDS011;31943;51.410;7.564;2023-06-19T00:59:11;9.57;;;4.53;;
46222;SDS011;31943;51.410;7.564;2023-06-19T01:01:41;4.72;;;3.80;;
46222;SDS011;31943;51.410;7.564;2023-06-19T01:04:07;8.80;;;7.30;;
46222;SDS011;31943;51.410;7.564;2023-06-19T01:06:37;4.18;;;3.63;;
46222;SDS011;31943;51.410;7.564;2023-06-19T01:09:09;4.00;;;3.70;;
46222;SDS011;31943;51.410;7.564;2023-06-19T01:11:41;4.93;;;4.20;;
46222;SDS011;31943;51.410;7.564;2023-06-19T01:14:16;3.83;;;3.53;;
46222;SDS011;31943;51.410;7.564;2023-06-19T01:16:45;4.45;;;3.45;;
46222;SDS011;31943;51.410;7.564;2023-06-19T01:19:11;4.63;;;3.90;;
46222;SDS011;31943;51.410;7.564;2023-06-19T01:21:42;4.47;;;4.07;;
46222;SDS011;31943;51.410;7.564;2023-06-19T01:24:12;4.00;;;3.70;;
46222;SDS011;31943;51.410;7.564;2023-06-19T01:26:38;4.65;;;3.97;;
46222;SDS011;31943;51.410;7.564;2023-06-19T01:29:04;4.15;;;3.72;;
46222;SDS011;31943;51.410;7.564;2023-06-19T01:31:31;5.55;;;3.60;;
46222;SDS011;31943;51.410;7.564;2023-06-19T01:34:03;3.90;;;3.60;;
46222;SDS011;31943;51.410;7.564;2023-06-19T01:36:32;4.20;;;3.90;;
46222;SDS011;31943;51.410;7.564;2023-06-19T01:38:58;5.45;;;3.80;;
46222;SDS011;31943;51.410;7.564;2023-06-19T01:41:27;4.35;;;3.63;;
46222;SDS011;31943;51.410;7.564;2023-06-19T01:43:54;4.13;;;3.72;;
46222;SDS011;31943;51.410;7.564;2023-06-19T01:46:22;5.18;;;3.92;;
46222;SDS011;31943;51.410;7.564;2023-06-19T01:48:49;5.32;;;4.20;;
46222;SDS011;31943;51.410;7.564;2023-06-19T01:51:16;5.20;;;3.45;;
46222;SDS011;31943;51.410;7.564;2023-06-19T01:53:42;4.50;;;4.10;;
46222;SDS011;31943;51.410;7.564;2023-06-19T01:56:08;5.72;;;4.10;;
46222;SDS011;31943;51.410;7.564;2023-06-19T01:58:35;4.72;;;4.32;;
46222;SDS011;31943;51.410;7.564;2023-06-19T02:01:01;4.40;;;3.97;;
46222;SDS011;31943;51.410;7.564;2023-06-19T02:03:27;4.53;;;4.07;;
46222;SDS011;31943;51.410;7.564;2023-06-19T02:05:52;4.65;;;4.20;;
46222;SDS011;31943;51.410;7.564;2023-06-19T02:08:18;4.35;;;3.95;;
46222;SDS011;31943;51.410;7.564;2023-06-19T02:10:44;6.40;;;3.97;;
46222;SDS011;31943;51.410;7.564;2023-06-19T02:13:09;5.18;;;4.07;;
46222;SDS011;31943;51.410;7.564;2023-06-19T02:15:37;5.55;;;4.22;;
46222;SDS011;31943;51.410;7.564;2023-06-19T02:18:02;4.15;;;3.75;;
46222;SDS011;31943;51.410;7.564;2023-06-19T02:20:29;5.88;;;4.80;;
46222;SDS011;31943;51.410;7.564;2023-06-19T02:22:54;4.93;;;4.10;;
46222;SDS011;31943;51.410;7.564;2023-06-19T02:25:20;4.68;;;4.22;;
46222;SDS011;31943;51.410;7.564;2023-06-19T02:27:46;4.38;;;3.97;;
46222;SDS011;31943;51.410;7.564;2023-06-19T02:30:11;4.30;;;3.90;;
46222;SDS011;31943;51.410;7.564;2023-06-19T02:32:39;5.60;;;4.43;;
46222;SDS011;31943;51.410;7.564;2023-06-19T02:35:06;4.90;;;4.47;;
46222;SDS011;31943;51.410;7.564;2023-06-19T02:37:34;4.82;;;4.25;;
46222;SDS011;31943;51.410;7.564;2023-06-19T02:39:59;4.57;;;4.18;;
46222;SDS011;31943;51.410;7.564;2023-06-19T02:42:25;4.30;;;3.90;;
46222;SDS011;31943;51.410;7.564;2023-06-19T02:44:51;4.53;;;4.13;;
46222;SDS011;31943;51.410;7.564;2023-06-19T02:47:17;5.93;;;4.13;;
46222;SDS011;31943;51.410;7.564;2023-06-19T02:49:45;4.82;;;4.32;;
46222;SDS011;31943;51.410;7.564;2023-06-19T02:52:10;4.35;;;3.95;;
46222;SDS011;31943;51.410;7.564;2023-06-19T02:54:36;4.95;;;4.45;;
46222;SDS011;31943;51.410;7.564;2023-06-19T02:57:01;4.88;;;4.45;;
46222;SDS011;31943;51.410;7.564;2023-06-19T02:59:28;5.38;;;4.88;;
46222;SDS011;31943;51.410;7.564;2023-06-19T03:01:53;4.63;;;4.15;;
46222;SDS011;31943;51.410;7.564;2023-06-19T03:04:19;4.90;;;4.50;;
46222;SDS011;31943;51.410;7.564;2023-06-19T03:06:46;5.72;;;4.40;;
46222;SDS011;31943;51.410;7.564;2023-06-19T03:09:11;5.55;;;4.80;;
46222;SDS011;31943;51.410;7.564;2023-06-19T03:11:37;5.40;;;4.75;;
46222;SDS011;31943;51.410;7.564;2023-06-19T03:14:03;5.38;;;4.60;;
46222;SDS011;31943;51.410;7.564;2023-06-19T03:16:29;4.93;;;4.43;;
46222;SDS011;31943;51.410;7.564;2023-06-19T03:18:54;4.82;;;4.32;;
46222;SDS011;31943;51.410;7.564;2023-06-19T03:21:21;4.93;;;4.43;;
46222;SDS011;31943;51.410;7.564;2023-06-19T03:23:49;5.35;;;4.85;;
46222;SDS011;31943;51.410;7.564;2023-06-19T03:26:15;5.40;;;4.45;;
46222;SDS011;31943;51.410;7.564;2023-06-19T03:28:40;4.95;;;4.53;;
46222;SDS011;31943;51.410;7.564;2023-06-19T03:31:06;4.22;;;3.80;;
46222;SDS011;31943;51.410;7.564;2023-06-19T03:33:32;5.47;;;4.50;;
46222;SDS011;31943;51.410;7.564;2023-06-19T03:35:57;4.20;;;3.90;;
46222;SDS011;31943;51.410;7.564;2023-06-19T03:38:23;5.68;;;3.78;;
46222;SDS011;31943;51.410;7.564;2023-06-19T03:40:50;6.43;;;3.67;;
46222;SDS011;31943;51.410;7.564;2023-06-19T03:43:16;5.68;;;4.00;;
46222;SDS011;31943;51.410;7.564;2023-06-19T03:45:42;3.78;;;3.38;;
46222;SDS011;31943;51.410;7.564;2023-06-19T03:48:07;4.03;;;3.70;;
46222;SDS011;31943;51.410;7.564;2023-06-19T03:50:33;6.13;;;3.20;;
46222;SDS011;31943;51.410;7.564;2023-06-19T03:52:59;3.88;;;3.55;;
46222;SDS011;31943;51.410;7.564;2023-06-19T03:55:24;3.30;;;3.00;;
46222;SDS011;31943;51.410;7.564;2023-06-19T03:57:51;5.78;;;3.63;;
46222;SDS011;31943;51.410;7.564;2023-06-19T04:00:17;5.82;;;3.78;;
46222;SDS011;31943;51.410;7.564;2023-06-19T04:02:43;6.13;;;3.40;;
46222;SDS011;31943;51.410;7.564;2023-06-19T04:05:08;3.55;;;3.25;;
46222;SDS011;31943;51.410;7.564;2023-06-19T04:07:34;3.65;;;3.10;;
46222;SDS011;31943;51.410;7.564;2023-06-19T04:10:00;3.85;;;3.30;;
46222;SDS011;31943;51.410;7.564;2023-06-19T04:12:25;3.83;;;3.45;;
46222;SDS011;31943;51.410;7.564;2023-06-19T04:14:53;4.28;;;3.50;;
46222;SDS011;31943;51.410;7.564;2023-06-19T04:17:18;4.45;;;3.38;;
46222;SDS011;31943;51.410;7.564;2023-06-19T04:19:44;3.55;;;3.25;;
46222;SDS011;31943;51.410;7.564;2023-06-19T04:22:10;4.70;;;3.15;;
46222;SDS011;31943;51.410;7.564;2023-06-19T04:24:36;4.57;;;3.08;;
46222;SDS011;31943;51.410;7.564;2023-06-19T04:27:01;3.33;;;3.03;;
46222;SDS011;31943;51.410;7.564;2023-06-19T04:29:27;4.35;;;3.08;;
46222;SDS011;31943;51.410;7.564;2023-06-19T04:31:54;3.30;;;3.00;;
46222;SDS011;31943;51.410;7.564;2023-06-19T04:34:20;4.57;;;2.92;;
46222;SDS011;31943;51.410;7.564;2023-06-19T04:36:45;5.60;;;3.20;;
46222;SDS011;31943;51.410;7.564;2023-06-19T04:39:11;3.60;;;3.20;;
46222;SDS011;31943;51.410;7.564;2023-06-19T04:41:37;3.67;;;3.00;;
46222;SDS011;31943;51.410;7.564;2023-06-19T04:44:02;2.92;;;2.65;;
46222;SDS011;31943;51.410;7.564;2023-06-19T04:46:28;4.95;;;2.95;;
46222;SDS011;31943;51.410;7.564;2023-06-19T04:48:55;4.00;;;3.08;;
46222;SDS011;31943;51.410;7.564;2023-06-19T04:51:21;3.38;;;3.08;;
46222;SDS011;31943;51.410;7.564;2023-06-19T04:53:48;4.57;;;3.30;;
46222;SDS011;31943;51.410;7.564;2023-06-19T04:56:13;3.30;;;3.00;;
46222;SDS011;31943;51.410;7.564;2023-06-19T04:58:40;3.58;;;3.20;;
46222;SDS011;31943;51.410;7.564;2023-06-19T05:01:05;4.90;;;2.92;;
46222;SDS011;31943;51.410;7.564;2023-06-19T05:03:31;4.20;;;3.00;;
46222;SDS011;31943;51.410;7.564;2023-06-19T05:05:58;4.53;;;2.85;;
46222;SDS011;31943;51.410;7.564;2023-06-19T05:08:24;3.08;;;2.78;;
46222;SDS011;31943;51.410;7.564;2023-06-19T05:10:49;4.95;;;2.97;;
46222;SDS011;31943;51.410;7.564;2023-06-19T05:13:15;5.40;;;3.05;;
46222;SDS011;31943;51.410;7.564;2023-06-19T05:15:40;2.90;;;2.45;;
46222;SDS011;31943;51.410;7.564;2023-06-19T05:18:06;3.42;;;2.70;;
46222;SDS011;31943;51.410;7.564;2023-06-19T05:20:32;2.65;;;2.25;;
46222;SDS011;31943;51.410;7.564;2023-06-19T05:22:59;2.88;;;2.60;;
46222;SDS011;31943;51.410;7.564;2023-06-19T05:25:24;5.15;;;2.80;;
46222;SDS011;31943;51.410;7.564;2023-06-19T05:27:52;3.70;;;2.97;;
46222;SDS011;31943;51.410;7.564;2023-06-19T05:30:17;2.90;;;2.65;;
46222;SDS011;31943;51.410;7.564;2023-06-19T05:32:43;6.18;;;2.63;;
46222;SDS011;31943;51.410;7.564;2023-06-19T05:35:09;4.03;;;2.58;;
46222;SDS011;31943;51.410;7.564;2023-06-19T05:37:35;3.85;;;2.42;;
46222;SDS011;31943;51.410;7.564;2023-06-19T05:40:02;2.78;;;2.50;;
46222;SDS011;31943;51.410;7.564;2023-06-19T05:42:28;4.07;;;2.70;;
46222;SDS011;31943;51.410;7.564;2023-06-19T05:44:54;3.80;;;2.70;;
46222;SDS011;31943;51.410;7.564;2023-06-19T05:47:19;3.50;;;2.50;;
46222;SDS011;31943;51.410;7.564;2023-06-19T05:49:45;3.92;;;2.60;;
46222;SDS011;31943;51.410;7.564;2023-06-19T05:52:11;4.35;;;2.25;;
46222;SDS011;31943;51.410;7.564;2023-06-19T05:54:37;4.03;;;2.30;;
46222;SDS011;31943;51.410;7.564;2023-06-19T05:57:04;3.15;;;1.80;;
46222;SDS011;31943;51.410;7.564;2023-06-19T05:59:30;2.90;;;2.10;;
46222;SDS011;31943;51.410;7.564;2023-06-19T06:01:56;2.35;;;2.15;;
46222;SDS011;31943;51.410;7.564;2023-06-19T06:04:22;3.75;;;2.33;;
46222;SDS011;31943;51.410;7.564;2023-06-19T06:06:47;3.13;;;2.28;;
46222;SDS011;31943;51.410;7.564;2023-06-19T06:09:13;3.65;;;2.15;;
46222;SDS011;31943;51.410;7.564;2023-06-19T06:11:39;2.70;;;1.98;;
46222;SDS011;31943;51.410;7.564;2023-06-19T06:14:06;2.67;;;2.03;;
46222;SDS011;31943;51.410;7.564;2023-06-19T06:19:46;2.35;;;1.63;;
46222;SDS011;31943;51.410;7.564;2023-06-19T06:22:12;2.33;;;1.95;;
46222;SDS011;31943;51.410;7.564;2023-06-19T06:24:38;2.50;;;2.00;;
46222;SDS011;31943;51.410;7.564;2023-06-19T06:27:04;3.38;;;1.92;;
46222;SDS011;31943;51.410;7.564;2023-06-19T06:29:31;2.13;;;1.92;;
46222;SDS011;31943;51.410;7.564;2023-06-19T06:32:02;2.20;;;1.63;;
46222;SDS011;31943;51.410;7.564;2023-06-19T06:34:28;3.75;;;1.80;;
46222;SDS011;31943;51.410;7.564;2023-06-19T06:36:54;3.03;;;1.90;;
46222;SDS011;31943;51.410;7.564;2023-06-19T06:39:19;3.00;;;1.50;;
46222;SDS011;31943;51.410;7.564;2023-06-19T06:41:45;3.17;;;1.55;;
46222;SDS011;31943;51.410;7.564;2023-06-19T06:44:10;2.83;;;1.80;;
46222;SDS011;31943;51.410;7.564;2023-06-19T06:46:38;2.30;;;1.80;;
46222;SDS011;31943;51.410;7.564;2023-06-19T06:49:03;2.03;;;1.65;;
46222;SDS011;31943;51.410;7.564;2023-06-19T06:51:29;3.38;;;1.88;;
46222;SDS011;31943;51.410;7.564;2023-06-19T06:53:54;3.38;;;1.75;;
46222;SDS011;31943;51.410;7.564;2023-06-19T06:56:20;2.20;;;1.83;;
46222;SDS011;31943;51.410;7.564;2023-06-19T06:58:46;2.05;;;1.80;;
46222;SDS011;31943;51.410;7.564;2023-06-19T07:01:11;2.47;;;1.90;;
46222;SDS011;31943;51.410;7.564;2023-06-19T07:03:38;2.20;;;1.63;;
46222;SDS011;31943;51.410;7.564;2023-06-19T07:06:04;2.10;;;1.90;;
46222;SDS011;31943;51.410;7.564;2023-06-19T07:08:30;2.10;;;1.90;;
46222;SDS011;31943;51.410;7.564;2023-06-19T07:10:55;2.67;;;1.75;;
46222;SDS011;31943;51.410;7.564;2023-06-19T07:13:26;2.65;;;1.80;;
46222;SDS011;31943;51.410;7.564;2023-06-19T07:15:52;3.70;;;2.20;;
46222;SDS011;31943;51.410;7.564;2023-06-19T07:18:19;2.20;;;2.00;;
46222;SDS011;31943;51.410;7.564;2023-06-19T07:20:46;3.83;;;2.30;;
46222;SDS011;31943;51.410;7.564;2023-06-19T07:23:12;2.40;;;1.95;;
46222;SDS011;31943;51.410;7.564;2023-06-19T07:25:40;2.15;;;1.73;;
46222;SDS011;31943;51.410;7.564;2023-06-19T07:28:05;5.20;;;1.88;;
46222;SDS011;31943;51.410;7.564;2023-06-19T07:30:31;2.55;;;1.52;;
46222;SDS011;31943;51.410;7.564;2023-06-19T07:32:57;3.45;;;1.60;;
46222;SDS011;31943;51.410;7.564;2023-06-19T07:35:22;3.33;;;1.60;;
46222;SDS011;31943;51.410;7.564;2023-06-19T07:37:49;2.60;;;1.80;;
46222;SDS011;31943;51.410;7.564;2023-06-19T07:40:16;2.05;;;1.55;;
46222;SDS011;31943;51.410;7.564;2023-06-19T07:42:42;1.70;;;1.50;;
46222;SDS011;31943;51.410;7.564;2023-06-19T07:45:08;2.22;;;1.50;;
46222;SDS011;31943;51.410;7.564;2023-06-19T07:47:35;1.70;;;1.30;;
46222;SDS011;31943;51.410;7.564;2023-06-19T07:50:00;1.80;;;1.60;;
46222;SDS011;31943;51.410;7.564;2023-06-19T07:52:26;1.75;;;1.58;;
46222;SDS011;31943;51.410;7.564;2023-06-19T07:54:54;1.73;;;1.50;;
46222;SDS011;31943;51.410;7.564;2023-06-19T07:57:22;5.03;;;1.80;;
46222;SDS011;31943;51.410;7.564;2023-06-19T07:59:48;1.65;;;1.55;;
46222;SDS011;31943;51.410;7.564;2023-06-19T08:02:15;2.10;;;1.33;;
46222;SDS011;31943;51.410;7.564;2023-06-19T08:04:41;3.83;;;1.70;;
46222;SDS011;31943;51.410;7.564;2023-06-19T08:07:06;3.42;;;1.60;;
46222;SDS011;31943;51.410;7.564;2023-06-19T08:09:32;2.42;;;1.60;;
46222;SDS011;31943;51.410;7.564;2023-06-19T08:12:00;3.65;;;1.80;;
46222;SDS011;31943;51.410;7.564;2023-06-19T08:14:26;2.58;;;2.20;;
46222;SDS011;31943;51.410;7.564;2023-06-19T08:16:51;3.22;;;2.42;;
46222;SDS011;31943;51.410;7.564;2023-06-19T08:19:17;2.28;;;1.90;;
46222;SDS011;31943;51.410;7.564;2023-06-19T08:21:43;3.25;;;1.52;;
46222;SDS011;31943;51.410;7.564;2023-06-19T08:24:08;1.40;;;1.30;;
46222;SDS011;31943;51.410;7.564;2023-06-19T08:26:34;3.53;;;1.50;;
46222;SDS011;31943;51.410;7.564;2023-06-19T08:29:01;2.13;;;1.60;;
46222;SDS011;31943;51.410;7.564;2023-06-19T08:31:27;4.50;;;1.58;;
46222;SDS011;31943;51.410;7.564;2023-06-19T08:33:54;2.65;;;1.30;;
46222;SDS011;31943;51.410;7.564;2023-06-19T08:36:20;1.85;;;1.58;;
46222;SDS011;31943;51.410;7.564;2023-06-19T08:38:46;2.20;;;1.88;;
46222;SDS011;31943;51.410;7.564;2023-06-19T08:41:12;3.83;;;1.98;;
46222;SDS011;31943;51.410;7.564;2023-06-19T08:43:38;1.90;;;1.52;;
46222;SDS011;31943;51.410;7.564;2023-06-19T08:46:09;3.53;;;1.50;;
46222;SDS011;31943;51.410;7.564;2023-06-19T08:48:36;2.97;;;1.70;;
46222;SDS011;31943;51.410;7.564;2023-06-19T08:51:02;1.42;;;1.30;;
46222;SDS011;31943;51.410;7.564;2023-06-19T08:53:27;2.97;;;1.73;;
46222;SDS011;31943;51.410;7.564;2023-06-19T08:55:53;2.33;;;1.98;;
46222;SDS011;31943;51.410;7.564;2023-06-19T08:58:21;2.92;;;1.90;;
46222;SDS011;31943;51.410;7.564;2023-06-19T09:00:47;3.65;;;1.77;;
46222;SDS011;31943;51.410;7.564;2023-06-19T09:03:19;4.80;;;1.80;;
46222;SDS011;31943;51.410;7.564;2023-06-19T09:05:45;2.92;;;1.77;;
46222;SDS011;31943;51.410;7.564;2023-06-19T09:08:12;3.85;;;1.73;;
46222;SDS011;31943;51.410;7.564;2023-06-19T09:10:38;2.63;;;1.80;;
46222;SDS011;31943;51.410;7.564;2023-06-19T09:13:04;5.78;;;2.17;;
46222;SDS011;31943;51.410;7.564;2023-06-19T09:15:31;2.45;;;1.75;;
46222;SDS011;31943;51.410;7.564;2023-06-19T09:18:04;1.98;;;1.50;;
46222;SDS011;31943;51.410;7.564;2023-06-19T09:20:32;4.22;;;2.10;;
46222;SDS011;31943;51.410;7.564;2023-06-19T09:22:58;2.75;;;1.85;;
46222;SDS011;31943;51.410;7.564;2023-06-19T09:25:24;2.42;;;2.03;;
46222;SDS011;31943;51.410;7.564;2023-06-19T09:27:50;3.13;;;2.03;;
46222;SDS011;31943;51.410;7.564;2023-06-19T09:30:16;2.85;;;2.10;;
46222;SDS011;31943;51.410;7.564;2023-06-19T09:32:42;2.42;;;1.77;;
46222;SDS011;31943;51.410;7.564;2023-06-19T09:35:07;2.63;;;1.98;;
46222;SDS011;31943;51.410;7.564;2023-06-19T09:37:35;2.67;;;1.73;;
46222;SDS011;31943;51.410;7.564;2023-06-19T09:40:04;2.45;;;1.98;;
46222;SDS011;31943;51.410;7.564;2023-06-19T09:42:31;40.03;;;5.65;;
46222;SDS011;31943;51.410;7.564;2023-06-19T09:44:59;2.83;;;1.48;;
46222;SDS011;31943;51.410;7.564;2023-06-19T09:47:25;8.35;;;1.92;;
46222;SDS011;31943;51.410;7.564;2023-06-19T09:49:56;4.20;;;1.90;;
46222;SDS011;31943;51.410;7.564;2023-06-19T09:52:23;4.20;;;2.70;;
46222;SDS011;31943;51.410;7.564;2023-06-19T09:54:51;5.07;;;1.58;;
46222;SDS011;31943;51.410;7.564;2023-06-19T09:57:18;2.42;;;1.75;;
46222;SDS011;31943;51.410;7.564;2023-06-19T09:59:45;2.50;;;2.30;;
46222;SDS011;31943;51.410;7.564;2023-06-19T10:02:12;3.00;;;2.42;;
46222;SDS011;31943;51.410;7.564;2023-06-19T10:04:43;2.95;;;2.10;;
46222;SDS011;31943;51.410;7.564;2023-06-19T10:07:14;2.92;;;1.90;;
46222;SDS011;31943;51.410;7.564;2023-06-19T10:09:40;3.63;;;1.85;;
46222;SDS011;31943;51.410;7.564;2023-06-19T10:12:13;2.30;;;1.88;;
46222;SDS011;31943;51.410;7.564;2023-06-19T10:14:44;2.38;;;2.15;;
46222;SDS011;31943;51.410;7.564;2023-06-19T10:17:13;4.03;;;2.25;;
46222;SDS011;31943;51.410;7.564;2023-06-19T10:19:48;4.13;;;2.10;;
46222;SDS011;31943;51.410;7.564;2023-06-19T10:22:19;2.22;;;2.03;;
46222;SDS011;31943;51.410;7.564;2023-06-19T10:24:48;3.45;;;2.17;;
46222;SDS011;31943;51.410;7.564;2023-06-19T10:27:20;2.85;;;2.22;;
46222;SDS011;31943;51.410;7.564;2023-06-19T10:29:51;3.35;;;2.35;;
46222;SDS011;31943;51.410;7.564;2023-06-19T10:32:17;2.58;;;2.30;;
46222;SDS011;31943;51.410;7.564;2023-06-19T10:34:44;3.80;;;2.25;;
46222;SDS011;31943;51.410;7.564;2023-06-19T10:37:11;3.30;;;2.20;;
46222;SDS011;31943;51.410;7.564;2023-06-19T10:39:37;4.35;;;2.17;;
46222;SDS011;31943;51.410;7.564;2023-06-19T10:42:05;3.22;;;2.17;;
46222;SDS011;31943;51.410;7.564;2023-06-19T10:44:33;4.47;;;2.30;;
46222;SDS011;31943;51.410;7.564;2023-06-19T10:47:00;2.50;;;1.92;;
46222;SDS011;31943;51.410;7.564;2023-06-19T10:49:26;4.80;;;2.15;;
46222;SDS011;31943;51.410;7.564;2023-06-19T10:51:51;3.78;;;2.30;;
46222;SDS011;31943;51.410;7.564;2023-06-19T10:54:17;3.20;;;2.33;;
46222;SDS011;31943;51.410;7.564;2023-06-19T10:56:43;3.47;;;1.95;;
46222;SDS011;31943;51.410;7.564;2023-06-19T10:59:09;3.90;;;2.38;;
46222;SDS011;31943;51.410;7.564;2023-06-19T11:01:37;5.13;;;2.38;;
46222;SDS011;31943;51.410;7.564;2023-06-19T11:04:05;3.22;;;2.15;;
46222;SDS011;31943;51.410;7.564;2023-06-19T11:06:32;4.97;;;2.50;;
46222;SDS011;31943;51.410;7.564;2023-06-19T11:08:58;4.03;;;2.70;;
46222;SDS011;31943;51.410;7.564;2023-06-19T11:11:24;4.60;;;2.75;;
46222;SDS011;31943;51.410;7.564;2023-06-19T11:14:00;3.08;;;2.58;;
46222;SDS011;31943;51.410;7.564;2023-06-19T11:16:26;2.95;;;2.45;;
46222;SDS011;31943;51.410;7.564;2023-06-19T11:18:56;4.00;;;2.85;;
46222;SDS011;31943;51.410;7.564;2023-06-19T11:23:54;3.10;;;2.58;;
46222;SDS011;31943;51.410;7.564;2023-06-19T11:26:24;3.60;;;2.78;;
46222;SDS011;31943;51.410;7.564;2023-06-19T11:28:50;3.63;;;2.53;;
46222;SDS011;31943;51.410;7.564;2023-06-19T11:31:16;3.22;;;2.67;;
46222;SDS011;31943;51.410;7.564;2023-06-19T11:33:41;4.80;;;2.38;;
46222;SDS011;31943;51.410;7.564;2023-06-19T11:36:08;4.10;;;2.83;;
46222;SDS011;31943;51.410;7.564;2023-06-19T11:38:35;3.92;;;2.85;;
46222;SDS011;31943;51.410;7.564;2023-06-19T11:41:01;4.35;;;2.80;;
46222;SDS011;31943;51.410;7.564;2023-06-19T11:43:27;4.82;;;3.15;;
46222;SDS011;31943;51.410;7.564;2023-06-19T11:45:59;4.75;;;2.90;;
46222;SDS011;31943;51.410;7.564;2023-06-19T11:48:27;4.88;;;2.97;;
46222;SDS011;31943;51.410;7.564;2023-06-19T11:50:53;4.25;;;2.72;;
46222;SDS011;31943;51.410;7.564;2023-06-19T11:53:21;3.83;;;2.80;;
46222;SDS011;31943;51.410;7.564;2023-06-19T11:55:48;4.40;;;3.08;;
46222;SDS011;31943;51.410;7.564;2023-06-19T11:58:14;3.25;;;2.90;;
46222;SDS011;31943;51.410;7.564;2023-06-19T12:00:40;3.72;;;3.15;;
46222;SDS011;31943;51.410;7.564;2023-06-19T12:03:05;3.35;;;2.92;;
46222;SDS011;31943;51.410;7.564;2023-06-19T12:05:31;3.92;;;3.00;;
46222;SDS011;31943;51.410;7.564;2023-06-19T12:07:58;3.75;;;3.15;;
46222;SDS011;31943;51.410;7.564;2023-06-19T12:10:25;3.45;;;3.00;;
46222;SDS011;31943;51.410;7.564;2023-06-19T12:12:51;7.10;;;3.08;;
46222;SDS011;31943;51.410;7.564;2023-06-19T12:15:17;8.05;;;3.33;;
46222;SDS011;31943;51.410;7.564;2023-06-19T12:17:42;4.25;;;3.05;;
46222;SDS011;31943;51.410;7.564;2023-06-19T12:20:08;3.30;;;2.70;;
46222;SDS011;31943;51.410;7.564;2023-06-19T12:22:35;3.92;;;3.15;;
46222;SDS011;31943;51.410;7.564;2023-06-19T12:25:00;5.25;;;3.10;;
46222;SDS011;31943;51.410;7.564;2023-06-19T12:27:42;5.10;;;3.13;;
46222;SDS011;31943;51.410;7.564;2023-06-19T12:30:08;6.07;;;3.38;;
46222;SDS011;31943;51.410;7.564;2023-06-19T12:32:35;4.57;;;3.03;;
46222;SDS011;31943;51.410;7.564;2023-06-19T12:35:01;4.85;;;3.35;;
46222;SDS011;31943;51.410;7.564;2023-06-19T12:37:26;4.35;;;3.08;;
46222;SDS011;31943;51.410;7.564;2023-06-19T12:39:52;5.35;;;3.00;;
46222;SDS011;31943;51.410;7.564;2023-06-19T12:42:18;4.63;;;3.47;;
46222;SDS011;31943;51.410;7.564;2023-06-19T12:44:45;4.90;;;3.20;;
46222;SDS011;31943;51.410;7.564;2023-06-19T12:47:10;3.97;;;3.25;;
46222;SDS011;31943;51.410;7.564;2023-06-19T12:49:36;3.33;;;2.75;;
46222;SDS011;31943;51.410;7.564;2023-06-19T12:52:05;4.22;;;3.20;;
46222;SDS011;31943;51.410;7.564;2023-06-19T12:54:32;5.03;;;3.15;;
46222;SDS011;31943;51.410;7.564;2023-06-19T12:56:58;4.13;;;3.00;;
46222;SDS011;31943;51.410;7.564;2023-06-19T12:59:24;3.50;;;2.88;;
46222;SDS011;31943;51.410;7.564;2023-06-19T13:01:52;4.10;;;2.92;;
46222;SDS011;31943;51.410;7.564;2023-06-19T13:04:17;5.13;;;3.40;;
46222;SDS011;31943;51.410;7.564;2023-06-19T13:06:43;5.20;;;3.08;;
46222;SDS011;31943;51.410;7.564;2023-06-19T13:09:09;3.50;;;3.03;;
46222;SDS011;31943;51.410;7.564;2023-06-19T13:11:35;6.88;;;3.30;;
46222;SDS011;31943;51.410;7.564;2023-06-19T13:14:01;3.80;;;2.90;;
46222;SDS011;31943;51.410;7.564;2023-06-19T13:16:26;3.40;;;2.80;;
46222;SDS011;31943;51.410;7.564;2023-06-19T13:18:54;5.72;;;3.05;;
46222;SDS011;31943;51.410;7.564;2023-06-19T13:21:22;4.95;;;3.13;;
46222;SDS011;31943;51.410;7.564;2023-06-19T13:23:48;7.10;;;3.25;;
46222;SDS011;31943;51.410;7.564;2023-06-19T13:26:13;3.92;;;2.95;;
46222;SDS011;31943;51.410;7.564;2023-06-19T13:28:39;4.50;;;2.80;;
46222;SDS011;31943;51.410;7.564;2023-06-19T13:31:05;5.25;;;3.72;;
46222;SDS011;31943;51.410;7.564;2023-06-19T13:33:31;5.40;;;3.03;;
46222;SDS011;31943;51.410;7.564;2023-06-19T13:35:58;4.55;;;3.30;;
46222;SDS011;31943;51.410;7.564;2023-06-19T13:38:24;3.78;;;3.10;;
46222;SDS011;31943;51.410;7.564;2023-06-19T13:40:50;5.78;;;3.15;;
46222;SDS011;31943;51.410;7.564;2023-06-19T13:43:15;3.95;;;3.10;;
46222;SDS011;31943;51.410;7.564;2023-06-19T13:45:41;3.95;;;3.00;;
46222;SDS011;31943;51.410;7.564;2023-06-19T13:48:07;5.75;;;3.50;;
46222;SDS011;31943;51.410;7.564;2023-06-19T13:50:33;6.60;;;3.42;;
46222;SDS011;31943;51.410;7.564;2023-06-19T13:53:01;4.13;;;3.22;;
46222;SDS011;31943;51.410;7.564;2023-06-19T13:55:27;4.65;;;2.85;;
46222;SDS011;31943;51.410;7.564;2023-06-19T13:57:53;7.72;;;3.47;;
46222;SDS011;31943;51.410;7.564;2023-06-19T14:00:19;5.57;;;3.22;;
46222;SDS011;31943;51.410;7.564;2023-06-19T14:02:45;3.40;;;3.10;;
46222;SDS011;31943;51.410;7.564;2023-06-19T14:05:11;6.90;;;3.30;;
46222;SDS011;31943;51.410;7.564;2023-06-19T14:07:37;6.38;;;3.40;;
46222;SDS011;31943;51.410;7.564;2023-06-19T14:10:05;3.58;;;3.28;;
46222;SDS011;31943;51.410;7.564;2023-06-19T14:12:31;4.40;;;3.30;;
46222;SDS011;31943;51.410;7.564;2023-06-19T14:14:58;6.22;;;3.10;;
46222;SDS011;31943;51.410;7.564;2023-06-19T14:17:24;5.43;;;3.22;;
46222;SDS011;31943;51.410;7.564;2023-06-19T14:19:49;5.18;;;3.60;;
46222;SDS011;31943;51.410;7.564;2023-06-19T14:22:15;5.03;;;3.35;;
46222;SDS011;31943;51.410;7.564;2023-06-19T14:24:41;6.30;;;3.40;;
46222;SDS011;31943;51.410;7.564;2023-06-19T14:27:08;6.45;;;3.45;;
46222;SDS011;31943;51.410;7.564;2023-06-19T14:29:34;6.45;;;3.30;;
46222;SDS011;31943;51.410;7.564;2023-06-19T14:31:59;3.63;;;2.92;;
46222;SDS011;31943;51.410;7.564;2023-06-19T14:34:25;8.07;;;3.28;;
46222;SDS011;31943;51.410;7.564;2023-06-19T14:36:51;4.05;;;3.20;;
46222;SDS011;31943;51.410;7.564;2023-06-19T14:39:19;3.30;;;2.83;;
46222;SDS011;31943;51.410;7.564;2023-06-19T14:41:45;4.95;;;3.13;;
46222;SDS011;31943;51.410;7.564;2023-06-19T14:44:13;5.63;;;3.50;;
46222;SDS011;31943;51.410;7.564;2023-06-19T14:46:42;4.07;;;3.08;;
46222;SDS011;31943;51.410;7.564;2023-06-19T14:49:10;6.47;;;3.45;;